This is the latest recevied weather packets stored in our database for station/object LZ1HCO-25. If no packets are shown the sender has not sent any weather packets the latest 1 day(s).
| Time | Temp. | Humidity | Pressure | Rain* | Wind** | Luminosity | Snow |
|---|---|---|---|---|---|---|---|
| 1778007259 | 15.56° C | 76% | 967 hPa | - | 0 m/s | 0 W/m² | - |
| 1778006948 | 15.56° C | 73% | 967 hPa | - | 0 m/s | 0 W/m² | - |
| 1778006636 | 16.11° C | 71% | 967 hPa | - | 0 m/s | 0 W/m² | - |
| 1778006325 | 16.11° C | 71% | 967 hPa | - | 0 m/s | 0 W/m² | - |
| 1778006014 | 16.11° C | 69% | 967 hPa | - | 0 m/s | 0 W/m² | - |
| 1778005702 | 15.56° C | 69% | 967 hPa | - | 0 m/s | 0 W/m² | - |
| 1778005391 | 16.67° C | 67% | 967 hPa | - | 0 m/s | 0 W/m² | - |
| 1778005080 | 16.67° C | 67% | 967 hPa | - | 0 m/s | 0 W/m² | - |
| 1778004768 | 17.22° C | 66% | 967 hPa | - | 0 m/s | 0 W/m² | - |
| 1778004457 | 17.22° C | 65% | 967 hPa | - | 0 m/s | 0 W/m² | - |
| 1778004145 | 17.78° C | 64% | 967 hPa | - | 0 m/s | 0 W/m² | - |
| 1778003834 | 17.78° C | 65% | 967 hPa | - | 0 m/s | 0 W/m² | - |
| 1778003523 | 17.78° C | 63% | 967 hPa | - | 0 m/s | 0 W/m² | - |
| 1778003211 | 17.22° C | 65% | 967 hPa | - | 0 m/s | 0 W/m² | - |
| 1778002900 | 17.78° C | 63% | 967 hPa | - | 0 m/s | 0 W/m² | - |
| 1778002589 | 18.89° C | 61% | 967 hPa | - | 0 m/s | 0 W/m² | - |
| 1778002277 | 18.33° C | 62% | 967 hPa | - | 0 m/s | 0 W/m² | - |
| 1778001966 | 18.89° C | 62% | 967 hPa | - | 0 m/s | 0 W/m² | - |
| 1778001655 | 17.78° C | 69% | 967 hPa | - | 0 m/s | 0 W/m² | - |
| 1778001343 | 18.33° C | 62% | 967 hPa | - | 0 m/s | 0 W/m² | - |
| 1778001032 | 19.44° C | 60% | 966 hPa | - | 0 m/s | 0 W/m² | - |
| 1778000721 | 20.56° C | 52% | 966 hPa | - | 0 m/s | 0 W/m² | - |
| 1778000409 | 21.11° C | 47% | 966 hPa | - | 0 m/s | 0 W/m² | - |
| 1778000098 | 21.11° C | 49% | 966 hPa | - | 0 m/s | 0 W/m² | - |
| 1777999786 | 21.67° C | 44% | 966 hPa | - | 0 m/s | 0 W/m² | - |
* Rain since midnight (hover to see other rain measurements)
** Current wind speed in m/s (hover to see current wind gust speed)